Time;durP1;ratioP1;P1;durP2;ratioP2;P2;SDS_P1;SDS_P2;PMS_P1;PMS_P2;Temp;Humidity;BMP_temperature;BMP_pressure;BME280_temperature;BME280_humidity;BME280_pressure;Samples;Min_cycle;Max_cycle;Signal;HPM_P1;HPM_P2
2022/11/07 00:00:59;;;;;;;34.22;22.45;;;;;;;6.24;100.00;93308.19;5083751;28;20493;-72
2022/11/07 00:03:27;;;;;;;33.35;24.13;;;;;;;6.31;100.00;93313.38;5070489;28;20060;-72
2022/11/07 00:05:54;;;;;;;38.72;26.80;;;;;;;6.24;100.00;93309.94;5070934;28;20048;-72
2022/11/07 00:08:30;;;;;;;39.05;27.63;;;;;;;6.13;100.00;93306.91;5070973;28;20094;-72
2022/11/07 00:10:57;;;;;;;39.17;27.95;;;;;;;6.14;100.00;93320.44;5070627;28;20048;-72
2022/11/07 00:13:26;;;;;;;41.15;28.90;;;;;;;6.08;100.00;93303.31;5070446;28;20486;-72
2022/11/07 00:15:53;;;;;;;40.58;27.73;;;;;;;6.30;100.00;93331.41;5070060;28;20091;-72
2022/11/07 00:18:20;;;;;;;39.92;27.50;;;;;;;6.33;100.00;93323.38;5070715;28;20048;-72
2022/11/07 00:20:48;;;;;;;40.70;27.40;;;;;;;6.42;100.00;93332.50;5070635;28;20061;-72
2022/11/07 00:23:15;;;;;;;41.53;26.30;;;;;;;6.41;100.00;93318.97;5070632;28;20060;-71
2022/11/07 00:25:41;;;;;;;37.95;26.02;;;;;;;6.55;100.00;93326.75;5070225;28;20044;-72
2022/11/07 00:28:08;;;;;;;32.85;24.52;;;;;;;6.57;100.00;93327.34;5069659;28;20048;-72
2022/11/07 00:30:35;;;;;;;34.25;25.30;;;;;;;6.59;100.00;93330.53;5070327;28;20075;-72
2022/11/07 00:33:01;;;;;;;33.78;24.13;;;;;;;6.57;100.00;93322.25;5070149;28;20048;-72
2022/11/07 00:35:28;;;;;;;34.10;23.90;;;;;;;6.59;100.00;93324.63;5070091;28;20102;-74
2022/11/07 00:37:57;;;;;;;32.72;23.73;;;;;;;6.58;100.00;93330.69;5069679;28;20048;-74
2022/11/07 00:40:23;;;;;;;32.17;23.13;;;;;;;6.60;100.00;93327.00;5070510;28;20053;-72
2022/11/07 00:42:50;;;;;;;36.05;23.80;;;;;;;6.55;100.00;93325.00;5070247;28;20040;-72
2022/11/07 00:45:17;;;;;;;31.48;22.50;;;;;;;6.44;100.00;93322.94;5069970;28;20040;-72
2022/11/07 00:47:44;;;;;;;30.15;21.83;;;;;;;6.44;100.00;93324.69;5070295;28;20040;-72
2022/11/07 00:50:10;;;;;;;34.38;23.45;;;;;;;6.39;100.00;93325.22;5069767;28;20040;-72
2022/11/07 00:52:37;;;;;;;30.33;21.48;;;;;;;6.35;100.00;93324.78;5070200;28;20129;-73
2022/11/07 00:55:06;;;;;;;32.72;23.38;;;;;;;6.31;100.00;93322.78;5071194;28;20052;-72
2022/11/07 00:57:33;;;;;;;29.80;20.67;;;;;;;6.28;100.00;93324.72;5070026;28;20481;-72
2022/11/07 00:59:59;;;;;;;28.42;21.17;;;;;;;6.30;100.00;93318.66;5070029;28;20109;-73
2022/11/07 01:02:26;;;;;;;28.25;21.33;;;;;;;6.27;100.00;93320.59;5069741;28;20064;-73
2022/11/07 01:05:10;;;;;;;30.08;21.77;;;;;;;6.28;100.00;93322.16;5069618;28;20528;-73
2022/11/07 01:07:37;;;;;;;33.25;22.20;;;;;;;6.22;100.00;93324.66;5069643;28;20055;-73
2022/11/07 01:10:07;;;;;;;32.33;21.80;;;;;;;6.15;100.00;93316.91;5069347;28;20040;-73
2022/11/07 01:12:34;;;;;;;35.78;24.48;;;;;;;5.82;100.00;93314.72;5069592;28;20106;-73
2022/11/07 01:15:01;;;;;;;33.80;22.15;;;;;;;5.75;100.00;93307.03;5069394;28;20501;-73
2022/11/07 01:17:28;;;;;;;34.30;24.30;;;;;;;5.83;100.00;93306.13;5069027;28;21000;-73
2022/11/07 01:19:55;;;;;;;34.30;23.67;;;;;;;5.92;100.00;93311.94;5069298;28;20558;-73
2022/11/07 01:22:22;;;;;;;36.83;26.05;;;;;;;5.96;100.00;93315.69;5069582;28;20535;-73
2022/11/07 01:24:48;;;;;;;38.22;24.05;;;;;;;5.99;100.00;93316.13;5069234;28;20044;-73
2022/11/07 01:27:16;;;;;;;36.22;24.73;;;;;;;6.04;100.00;93325.03;5069421;28;20121;-73
2022/11/07 01:29:43;;;;;;;37.47;24.38;;;;;;;6.11;100.00;93319.03;5068948;28;20045;-73
2022/11/07 01:32:10;;;;;;;39.38;26.00;;;;;;;6.17;100.00;93319.28;5069012;28;20382;-73
2022/11/07 01:34:37;;;;;;;38.15;23.77;;;;;;;6.22;100.00;93317.78;5069469;28;20052;-73
2022/11/07 01:37:03;;;;;;;38.35;24.33;;;;;;;6.21;100.00;93323.84;5069393;28;20078;-73
2022/11/07 01:39:30;;;;;;;42.63;26.48;;;;;;;6.19;100.00;93319.88;5069031;28;20048;-73
2022/11/07 01:41:57;;;;;;;41.30;26.85;;;;;;;6.23;100.00;93319.38;5068929;28;20049;-73
2022/11/07 01:44:52;;;;;;;48.45;27.00;;;;;;;6.30;100.00;93314.34;5069039;28;20501;-73
2022/11/07 01:47:19;;;;;;;43.45;26.75;;;;;;;6.32;100.00;93324.34;5069056;28;20466;-73
2022/11/07 01:49:46;;;;;;;44.95;27.83;;;;;;;6.29;100.00;93320.41;5069117;28;20045;-73
2022/11/07 01:52:20;;;;;;;45.22;28.05;;;;;;;6.28;100.00;93327.28;5067597;28;20056;-73
2022/11/07 01:54:52;;;;;;;44.33;27.25;;;;;;;6.31;100.00;93332.97;5070117;28;20110;-73
2022/11/07 01:57:23;;;;;;;48.63;28.85;;;;;;;6.26;100.00;93329.19;5069025;28;20048;-73
2022/11/07 01:59:56;;;;;;;48.28;29.48;;;;;;;6.25;100.00;93316.66;5068925;28;20044;-73
2022/11/07 02:02:25;;;;;;;37.88;24.55;;;;;;;6.23;100.00;93326.22;5068714;28;20052;-74
2022/11/07 02:04:52;;;;;;;47.08;28.88;;;;;;;6.27;100.00;93324.91;5068630;28;20044;-73
2022/11/07 02:07:20;;;;;;;52.13;30.35;;;;;;;6.34;100.00;93333.41;5068715;28;20042;-73
2022/11/07 02:09:48;;;;;;;50.13;29.63;;;;;;;6.36;100.00;93328.13;5068721;28;20165;-73
2022/11/07 02:12:17;;;;;;;55.25;31.25;;;;;;;6.41;100.00;93328.38;5068887;28;20118;-73
2022/11/07 02:14:44;;;;;;;52.53;30.83;;;;;;;6.46;100.00;93331.19;5068725;28;20044;-73
2022/11/07 02:17:13;;;;;;;50.58;30.38;;;;;;;6.48;100.00;93324.13;5068703;28;20040;-73
2022/11/07 02:19:42;;;;;;;51.63;30.13;;;;;;;6.32;100.00;93298.84;5068493;28;20094;-73
2022/11/07 02:22:16;;;;;;;49.08;29.13;;;;;;;6.58;100.00;93328.16;5068324;28;20102;-73
2022/11/07 02:24:46;;;;;;;47.00;28.45;;;;;;;6.66;100.00;93326.25;5068406;28;20048;-73
2022/11/07 02:27:16;;;;;;;46.25;26.52;;;;;;;6.72;100.00;93329.88;5068849;28;20105;-73
2022/11/07 02:29:46;;;;;;;46.58;27.23;;;;;;;6.76;100.00;93335.38;5068668;28;20467;-73
2022/11/07 02:32:15;;;;;;;46.55;25.38;;;;;;;6.78;100.00;93333.44;5068962;28;20057;-73
2022/11/07 02:34:42;;;;;;;47.20;26.08;;;;;;;6.81;100.00;93335.63;5068502;28;20056;-73
2022/11/07 02:37:19;;;;;;;52.30;28.55;;;;;;;6.76;100.00;93320.84;5064697;28;20497;-73
2022/11/07 02:39:47;;;;;;;58.20;30.55;;;;;;;6.80;100.00;93323.81;5068219;28;20045;-73
2022/11/07 02:42:14;;;;;;;56.88;30.83;;;;;;;6.86;100.00;93332.53;5072507;28;20045;-73
2022/11/07 02:44:41;;;;;;;50.58;28.02;;;;;;;6.85;100.00;93329.16;5072514;28;20048;-73
2022/11/07 02:47:08;;;;;;;49.78;26.60;;;;;;;6.90;100.00;93324.31;5072150;28;20467;-73
2022/11/07 02:49:34;;;;;;;45.63;26.13;;;;;;;6.92;100.00;93322.38;5071893;28;20555;-73
2022/11/07 02:52:01;;;;;;;46.97;26.08;;;;;;;6.95;100.00;93324.53;5072185;28;20041;-73
2022/11/07 02:54:28;;;;;;;45.15;25.75;;;;;;;6.96;100.00;93322.78;5073483;28;20049;-73
2022/11/07 02:56:56;;;;;;;45.38;26.27;;;;;;;6.98;100.00;93323.38;5071864;28;20117;-73
2022/11/07 02:59:23;;;;;;;38.90;25.70;;;;;;;6.98;100.00;93325.94;5072076;28;20048;-73
2022/11/07 03:01:50;;;;;;;43.10;25.10;;;;;;;6.99;100.00;93322.41;5071806;28;20044;-72
2022/11/07 03:04:16;;;;;;;45.35;26.45;;;;;;;6.97;100.00;93326.91;5072107;28;20102;-72
2022/11/07 03:06:43;;;;;;;44.40;25.52;;;;;;;7.00;100.00;93321.47;5071767;28;20497;-72
2022/11/07 03:09:10;;;;;;;44.08;25.60;;;;;;;6.89;100.00;93314.28;5071711;28;20040;-72
2022/11/07 03:11:36;;;;;;;45.65;25.08;;;;;;;6.88;100.00;93313.50;5072177;28;20102;-72
2022/11/07 03:14:06;;;;;;;43.15;26.98;;;;;;;6.93;100.00;93328.25;5072135;28;20467;-72
2022/11/07 03:16:33;;;;;;;46.75;26.88;;;;;;;7.00;100.00;93329.13;5072051;28;20045;-72
2022/11/07 03:18:59;;;;;;;50.42;28.50;;;;;;;6.76;100.00;93336.16;5071663;28;20575;-72
2022/11/07 03:21:26;;;;;;;51.08;29.05;;;;;;;6.70;100.00;93338.69;5071566;28;20109;-72
2022/11/07 03:23:55;;;;;;;52.38;32.20;;;;;;;6.70;100.00;93342.00;5071821;28;20439;-73
2022/11/07 03:26:21;;;;;;;50.28;28.85;;;;;;;6.66;100.00;93330.56;5071685;28;20122;-72
2022/11/07 03:28:48;;;;;;;50.13;29.00;;;;;;;6.75;100.00;93346.59;5071291;28;20102;-72
2022/11/07 03:31:16;;;;;;;50.05;30.38;;;;;;;6.80;100.00;93354.47;5071642;28;20126;-73
2022/11/07 03:33:43;;;;;;;53.58;29.67;;;;;;;6.82;100.00;93358.41;5071793;28;20049;-73
2022/11/07 03:36:10;;;;;;;55.05;31.50;;;;;;;6.85;100.00;93356.47;5071108;28;20049;-73
2022/11/07 03:38:37;;;;;;;57.28;33.25;;;;;;;6.92;100.00;93359.88;5069088;28;20044;-74
2022/11/07 03:41:03;;;;;;;53.33;29.17;;;;;;;6.89;100.00;93357.72;5069393;28;20045;-73
2022/11/07 03:43:30;;;;;;;50.45;29.70;;;;;;;6.90;100.00;93360.06;5070933;28;20048;-73
2022/11/07 03:45:57;;;;;;;55.30;30.98;;;;;;;7.00;100.00;93364.06;5071378;28;20110;-73
2022/11/07 03:48:25;;;;;;;58.63;30.65;;;;;;;7.09;100.00;93356.09;5071067;28;20564;-73
2022/11/07 03:50:52;;;;;;;64.10;33.17;;;;;;;7.23;100.00;93369.00;5070628;28;20410;-73
2022/11/07 03:53:18;;;;;;;59.50;31.70;;;;;;;7.31;100.00;93366.28;5071063;28;20486;-73
2022/11/07 03:55:46;;;;;;;57.40;32.25;;;;;;;7.40;100.00;93368.72;5071917;28;20114;-73
2022/11/07 03:58:13;;;;;;;61.90;33.00;;;;;;;7.46;100.00;93373.09;5071111;28;20052;-73
2022/11/07 04:00:40;;;;;;;57.40;32.42;;;;;;;7.50;100.00;93366.59;5071009;28;20048;-73
2022/11/07 04:03:06;;;;;;;64.68;33.67;;;;;;;7.49;100.00;93354.81;5071091;28;20451;-73
2022/11/07 04:05:34;;;;;;;64.57;33.38;;;;;;;7.61;100.00;93365.31;5071075;28;20093;-72
2022/11/07 04:08:01;;;;;;;62.35;31.52;;;;;;;7.66;100.00;93365.53;5070901;28;20036;-73
2022/11/07 04:10:28;;;;;;;56.72;31.52;;;;;;;7.69;100.00;93365.16;5070746;28;20053;-73
2022/11/07 04:18:24;;;;;;;61.72;31.15;;;;;;;7.75;100.00;93366.19;5070654;28;20060;-72
2022/11/07 04:20:52;;;;;;;58.25;29.42;;;;;;;7.77;100.00;93359.09;5070742;28;20052;-72
2022/11/07 04:23:19;;;;;;;58.00;29.90;;;;;;;7.81;100.00;93360.31;5070865;28;20475;-72
2022/11/07 04:28:30;;;;;;;60.83;29.50;;;;;;;7.94;100.00;93369.81;5070261;28;20586;-72
2022/11/07 04:30:56;;;;;;;61.13;29.55;;;;;;;8.00;100.00;93365.72;5070505;28;20444;-73
2022/11/07 04:33:23;;;;;;;61.38;30.17;;;;;;;7.98;100.00;93367.69;5070512;28;20102;-73
2022/11/07 04:35:50;;;;;;;62.17;30.70;;;;;;;7.98;100.00;93376.16;5070277;28;20044;-73
2022/11/07 04:38:18;;;;;;;57.35;30.23;;;;;;;8.04;100.00;93376.38;5070356;28;20048;-73
2022/11/07 04:40:44;;;;;;;58.78;30.63;;;;;;;8.02;100.00;93372.22;5070059;28;20053;-73
2022/11/07 04:43:11;;;;;;;62.92;30.90;;;;;;;8.11;100.00;93380.53;5070266;28;20056;-73
2022/11/07 04:45:39;;;;;;;55.63;31.30;;;;;;;8.10;100.00;93378.94;5070138;28;20044;-73
2022/11/07 04:48:07;;;;;;;62.97;31.88;;;;;;;8.08;100.00;93377.56;5070167;28;20052;-73
2022/11/07 04:50:34;;;;;;;64.35;32.80;;;;;;;8.08;100.00;93383.47;5069820;28;20052;-73
2022/11/07 04:53:00;;;;;;;59.15;30.73;;;;;;;8.05;100.00;93373.59;5069859;28;20567;-73
2022/11/07 04:55:30;;;;;;;59.85;30.48;;;;;;;8.04;100.00;93373.81;5070575;28;20052;-72
2022/11/07 04:57:57;;;;;;;64.65;29.75;;;;;;;8.14;100.00;93394.72;5069762;28;20486;-73
2022/11/07 05:00:24;;;;;;;54.42;28.23;;;;;;;8.15;100.00;93403.97;5069579;28;21042;-73
2022/11/07 05:02:51;;;;;;;52.65;28.73;;;;;;;8.14;100.00;93394.72;5068815;28;20044;-73
2022/11/07 05:05:18;;;;;;;59.60;30.15;;;;;;;8.15;100.00;93403.97;5069884;28;20052;-73
2022/11/07 05:07:46;;;;;;;56.63;31.08;;;;;;;8.18;100.00;93400.25;5069478;28;20113;-73
2022/11/07 05:10:18;;;;;;;62.78;30.05;;;;;;;8.19;100.00;93401.84;5069884;28;20086;-72
2022/11/07 05:12:47;;;;;;;62.13;30.90;;;;;;;8.24;100.00;93402.06;5069505;28;20048;-72
2022/11/07 05:15:14;;;;;;;56.10;30.98;;;;;;;8.24;100.00;93399.50;5070065;28;20469;-72
2022/11/07 05:17:41;;;;;;;62.60;30.77;;;;;;;8.28;100.00;93408.34;5069441;28;20119;-72
2022/11/07 05:20:15;;;;;;;59.47;30.23;;;;;;;8.32;100.00;93413.91;5069463;28;20481;-72
2022/11/07 05:25:26;;;;;;;53.35;27.60;;;;;;;8.36;100.00;93415.09;5069242;28;20141;-73
2022/11/07 05:27:56;;;;;;;57.38;28.55;;;;;;;8.37;100.00;93425.13;5069096;28;20562;-73
2022/11/07 05:30:23;;;;;;;49.83;25.75;;;;;;;8.37;100.00;93421.78;5069449;28;20053;-73
2022/11/07 05:32:49;;;;;;;49.00;24.33;;;;;;;8.36;100.00;93423.56;5068993;28;20044;-73
2022/11/07 05:35:16;;;;;;;44.60;23.30;;;;;;;8.34;100.00;93425.50;5082738;28;20047;-73
2022/11/07 05:37:43;;;;;;;47.38;24.27;;;;;;;8.30;100.00;93424.31;5110627;28;20455;-72
2022/11/07 05:40:11;;;;;;;49.60;24.45;;;;;;;8.29;100.00;93428.66;5110128;28;20475;-72
2022/11/07 05:42:38;;;;;;;43.88;23.35;;;;;;;8.22;100.00;93414.22;5110383;28;20059;-72
2022/11/07 05:45:08;;;;;;;50.17;24.23;;;;;;;8.27;100.00;93434.94;5109905;28;20104;-72
2022/11/07 05:47:34;;;;;;;48.45;25.05;;;;;;;8.22;100.00;93421.91;5110348;28;20116;-72
2022/11/07 05:50:01;;;;;;;52.00;24.08;;;;;;;8.26;100.00;93430.78;5108202;28;20497;-72
2022/11/07 05:52:28;;;;;;;53.88;26.00;;;;;;;8.32;100.00;93434.38;5097141;28;20088;-72
2022/11/07 05:54:54;;;;;;;55.83;25.52;;;;;;;8.35;100.00;93431.44;5082812;28;20052;-72
2022/11/07 05:57:21;;;;;;;54.65;25.70;;;;;;;8.40;100.00;93442.69;5109208;28;20101;-72
2022/11/07 05:59:48;;;;;;;56.22;26.48;;;;;;;8.44;100.00;93437.97;5110054;28;20048;-72
2022/11/07 06:02:16;;;;;;;54.20;25.88;;;;;;;8.47;100.00;93436.81;5110153;28;20108;-72
2022/11/07 06:04:42;;;;;;;60.97;26.27;;;;;;;8.52;100.00;93435.25;5109720;28;20051;-72
2022/11/07 06:07:09;;;;;;;57.75;25.25;;;;;;;8.58;100.00;93446.53;5109944;28;20492;-72
2022/11/07 06:09:36;;;;;;;58.20;25.70;;;;;;;8.62;100.00;93442.63;5110083;28;20129;-72
2022/11/07 06:12:03;;;;;;;58.47;26.45;;;;;;;8.67;100.00;93435.13;5109677;28;20105;-72
2022/11/07 06:14:30;;;;;;;60.70;28.67;;;;;;;8.72;100.00;93449.13;5111078;28;20608;-72
2022/11/07 06:16:57;;;;;;;58.75;27.05;;;;;;;8.75;100.00;93453.88;5114052;28;20093;-72
2022/11/07 06:19:25;;;;;;;54.80;25.90;;;;;;;8.79;100.00;93452.50;5113825;28;20051;-72
2022/11/07 06:21:51;;;;;;;56.80;26.38;;;;;;;8.86;100.00;93468.69;5114225;28;20047;-72
2022/11/07 06:24:18;;;;;;;61.95;27.33;;;;;;;8.90;100.00;93474.22;5114089;28;20047;-72
2022/11/07 06:26:45;;;;;;;61.05;28.20;;;;;;;8.74;100.00;93436.94;5092850;28;20056;-72
2022/11/07 06:29:12;;;;;;;60.45;26.25;;;;;;;8.98;100.00;93468.91;5098973;28;20044;-72
2022/11/07 06:31:39;;;;;;;62.75;28.30;;;;;;;9.00;100.00;93466.97;5113468;28;20104;-72
2022/11/07 06:34:05;;;;;;;63.20;26.85;;;;;;;9.11;100.00;93472.50;5113496;28;20237;-72
2022/11/07 06:36:33;;;;;;;56.03;26.00;;;;;;;9.16;100.00;93478.63;5113476;28;20493;-73
2022/11/07 06:39:00;;;;;;;55.17;26.25;;;;;;;9.18;100.00;93479.22;5113749;28;20549;-73
2022/11/07 06:41:27;;;;;;;60.90;27.08;;;;;;;9.21;100.00;93483.94;5113236;28;20047;-73
2022/11/07 06:43:54;;;;;;;56.30;27.23;;;;;;;9.25;100.00;93486.16;5113739;28;20052;-73
2022/11/07 06:46:22;;;;;;;63.47;28.73;;;;;;;9.04;100.00;93459.66;5113497;28;20048;-73
2022/11/07 06:48:49;;;;;;;59.00;30.33;;;;;;;9.14;100.00;93490.84;5113219;28;20485;-73
2022/11/07 06:51:15;;;;;;;65.90;36.33;;;;;;;9.00;100.00;93491.78;5113201;28;20055;-73
2022/11/07 06:53:43;;;;;;;50.65;26.75;;;;;;;9.05;100.00;93495.34;5106108;28;20048;-73
2022/11/07 06:56:14;;;;;;;68.10;29.60;;;;;;;9.01;100.00;93493.34;5092111;28;20070;-72
2022/11/07 06:58:41;;;;;;;68.90;30.45;;;;;;;9.12;100.00;93497.91;5113077;28;20048;-73
2022/11/07 07:01:11;;;;;;;61.97;30.80;;;;;;;9.23;100.00;93494.78;5112881;28;20085;-72
2022/11/07 07:03:38;;;;;;;62.53;30.17;;;;;;;9.30;100.00;93496.59;5113280;28;20039;-72
2022/11/07 07:06:07;;;;;;;58.00;29.10;;;;;;;9.36;100.00;93504.28;5113391;28;20109;-73
2022/11/07 07:08:34;;;;;;;68.20;31.83;;;;;;;9.39;100.00;93485.16;5113095;28;20048;-73
2022/11/07 07:11:04;;;;;;;67.18;30.10;;;;;;;9.48;100.00;93484.00;5113168;28;20052;-73
2022/11/07 07:13:32;;;;;;;61.90;29.80;;;;;;;9.70;100.00;93500.97;5113203;28;20040;-72
2022/11/07 07:15:59;;;;;;;64.18;29.63;;;;;;;9.81;100.00;93495.25;5113108;28;20451;-72
2022/11/07 07:18:27;;;;;;;57.60;30.05;;;;;;;9.91;100.00;93496.66;5112999;28;20116;-72
2022/11/07 07:21:01;;;;;;;52.58;27.35;;;;;;;10.05;100.00;93500.00;5112935;28;20044;-73
2022/11/07 07:23:28;;;;;;;45.72;25.95;;;;;;;10.11;100.00;93486.38;5112621;28;20569;-72
2022/11/07 07:25:55;;;;;;;44.67;25.63;;;;;;;10.30;100.00;93497.59;5111079;28;20175;-72
2022/11/07 07:28:23;;;;;;;42.60;25.35;;;;;;;10.39;100.00;93495.59;5107525;28;20640;-73
2022/11/07 07:30:49;;;;;;;38.60;24.15;;;;;;;10.47;100.00;93497.19;5084409;28;20043;-72
2022/11/07 07:33:16;;;;;;;39.40;23.65;;;;;;;10.54;100.00;93493.63;5111407;28;20104;-73
2022/11/07 07:35:43;;;;;;;38.35;25.40;;;;;;;10.58;100.00;93499.13;5112285;28;20447;-73
2022/11/07 07:38:11;;;;;;;41.00;25.10;;;;;;;10.66;100.00;93501.47;5112450;28;20047;-72
2022/11/07 07:40:38;;;;;;;40.00;24.40;;;;;;;10.77;100.00;93501.84;5112364;28;20089;-73
2022/11/07 07:43:04;;;;;;;42.40;25.58;;;;;;;10.86;100.00;93497.25;5112555;28;20120;-72
2022/11/07 07:45:32;;;;;;;36.45;24.65;;;;;;;10.95;100.00;93503.75;5111941;28;20051;-72
2022/11/07 07:48:00;;;;;;;41.42;24.35;;;;;;;11.06;100.00;93507.47;5112181;28;20092;-72
2022/11/07 07:50:27;;;;;;;38.85;23.90;;;;;;;11.16;100.00;93507.78;5111257;28;20130;-72
2022/11/07 07:52:56;;;;;;;37.60;23.67;;;;;;;11.28;100.00;93504.56;5096343;28;20051;-72
2022/11/07 07:55:22;;;;;;;34.97;23.02;;;;;;;11.40;100.00;93502.94;5081327;28;20105;-72
2022/11/07 07:57:49;;;;;;;35.10;20.98;;;;;;;11.32;100.00;93501.41;5112165;28;20113;-72
2022/11/07 08:00:16;;;;;;;35.15;23.10;;;;;;;11.50;100.00;93503.25;5109921;28;20089;-72
2022/11/07 08:02:44;;;;;;;33.80;22.13;;;;;;;11.67;100.00;93514.84;5112313;28;20148;-72
2022/11/07 08:05:12;;;;;;;35.72;22.67;;;;;;;11.81;100.00;93513.75;5112268;28;20113;-73
2022/11/07 08:07:45;;;;;;;33.75;22.13;;;;;;;11.86;100.00;93513.91;5097768;28;20098;-72
2022/11/07 08:10:12;;;;;;;32.88;22.33;;;;;;;12.03;100.00;93516.75;5098941;28;20100;-72
2022/11/07 08:12:43;;;;;;;39.40;24.60;;;;;;;12.19;100.00;93506.94;5103276;28;20052;-72
2022/11/07 08:15:11;;;;;;;35.13;23.00;;;;;;;12.32;100.00;93498.31;5112118;28;20442;-72
2022/11/07 08:17:38;;;;;;;36.17;23.40;;;;;;;12.48;100.00;93504.69;5111433;28;20048;-72
2022/11/07 08:20:08;;;;;;;33.80;23.17;;;;;;;12.61;100.00;93510.69;5111269;28;20070;-72
2022/11/07 08:22:35;;;;;;;32.10;21.48;;;;;;;12.69;100.00;93510.44;5111631;28;20050;-72
2022/11/07 08:25:02;;;;;;;36.50;22.95;;;;;;;12.80;100.00;93506.34;5111462;28;20051;-72
2022/11/07 08:27:29;;;;;;;39.25;23.92;;;;;;;12.76;100.00;93505.19;5111347;28;20493;-72
2022/11/07 08:29:56;;;;;;;32.70;22.98;;;;;;;12.76;100.00;93502.59;5103265;28;20040;-72
2022/11/07 08:32:23;;;;;;;44.53;27.48;;;;;;;12.67;100.00;93502.09;5105875;28;20055;-72
2022/11/07 08:34:49;;;;;;;42.67;25.52;;;;;;;12.64;100.00;93512.88;5097674;27;20110;-72
2022/11/07 08:37:17;;;;;;;39.83;25.27;;;;;;;12.63;100.00;93503.56;5098983;27;20497;-72
2022/11/07 08:39:44;;;;;;;37.10;24.30;;;;;;;12.65;100.00;93502.31;5111313;28;20047;-72
2022/11/07 08:42:11;;;;;;;38.47;25.38;;;;;;;12.79;100.00;93515.06;5111116;28;20104;-72
2022/11/07 08:44:38;;;;;;;37.97;24.45;;;;;;;12.99;100.00;93514.03;5111279;28;20101;-72
2022/11/07 08:47:05;;;;;;;37.92;25.27;;;;;;;13.17;100.00;93511.47;5110731;28;20120;-72
2022/11/07 08:49:31;;;;;;;35.15;24.08;;;;;;;13.27;100.00;93518.66;5111066;28;20101;-72
2022/11/07 08:51:59;;;;;;;33.60;22.77;;;;;;;13.31;100.00;93529.34;5110984;28;20505;-72
2022/11/07 08:54:28;;;;;;;35.42;24.25;;;;;;;13.42;100.00;93520.84;5091671;28;20520;-72
2022/11/07 08:56:54;;;;;;;36.25;22.90;;;;;;;13.67;100.00;93521.75;5102275;28;20059;-72
2022/11/07 08:59:21;;;;;;;31.10;20.55;;;;;;;13.39;100.00;93523.88;5088058;28;20094;-72
2022/11/07 09:01:48;;;;;;;39.60;24.35;;;;;;;13.78;100.00;93522.78;5092082;28;20057;-73
2022/11/07 09:04:15;;;;;;;36.42;22.55;;;;;;;13.94;100.00;93527.31;5088952;28;20044;-72
2022/11/07 09:06:42;;;;;;;31.88;19.80;;;;;;;13.79;100.00;93532.09;5109250;28;20047;-72
2022/11/07 09:09:09;;;;;;;32.78;19.50;;;;;;;13.48;100.00;93525.16;5086143;28;20044;-72
2022/11/07 09:11:37;;;;;;;30.95;18.92;;;;;;;13.23;100.00;93523.47;5090885;28;20071;-72
2022/11/07 09:14:04;;;;;;;30.88;18.67;;;;;;;13.20;100.00;93521.31;5110420;28;20558;-72
2022/11/07 09:16:31;;;;;;;29.75;18.40;;;;;;;13.22;100.00;93519.34;5110780;28;20051;-72
2022/11/07 09:18:57;;;;;;;30.88;20.55;;;;;;;13.55;100.00;93517.34;5110620;28;20051;-72
2022/11/07 09:21:24;;;;;;;30.60;19.35;;;;;;;13.33;100.00;93514.44;5087001;28;20497;-73
2022/11/07 09:23:51;;;;;;;30.83;19.73;;;;;;;13.01;100.00;93510.25;5089487;28;20504;-72
2022/11/07 09:26:18;;;;;;;33.83;20.95;;;;;;;13.17;100.00;93510.66;5110571;28;20059;-72
2022/11/07 09:28:46;;;;;;;28.92;20.30;;;;;;;13.46;100.00;93511.69;5071928;28;20045;-72
2022/11/07 09:31:13;;;;;;;31.38;20.50;;;;;;;13.75;100.00;93511.13;5082923;28;20067;-74
2022/11/07 09:33:40;;;;;;;28.90;19.23;;;;;;;14.05;100.00;93512.84;5097398;28;20104;-73
2022/11/07 09:36:07;;;;;;;29.70;20.05;;;;;;;14.20;100.00;93517.56;5079730;28;20044;-73
2022/11/07 09:38:34;;;;;;;31.52;19.83;;;;;;;14.32;100.00;93506.44;5110430;28;20044;-73
2022/11/07 09:41:07;;;;;;;35.47;20.67;;;;;;;14.26;100.00;93508.91;5106344;28;20051;-73
2022/11/07 09:43:52;;;;;;;31.75;20.90;;;;;;;13.90;100.00;93502.94;5086337;28;20070;-74
2022/11/07 09:46:31;;;;;;;29.98;20.05;;;;;;;13.89;100.00;93498.78;5098169;28;20080;-73
2022/11/07 09:49:03;;;;;;;30.92;21.10;;;;;;;14.13;100.00;93503.97;5108373;28;20051;-72
2022/11/07 09:51:35;;;;;;;30.65;20.52;;;;;;;14.26;100.00;93498.56;5108248;28;20048;-73
2022/11/07 09:54:06;;;;;;;31.45;20.40;;;;;;;14.26;100.00;93498.56;5097371;28;20053;-72
2022/11/07 09:56:33;;;;;;;36.70;20.25;;;;;;;14.29;100.00;93503.28;5082261;28;20569;-72
2022/11/07 09:59:06;;;;;;;29.33;19.13;;;;;;;14.55;100.00;93496.06;5109057;28;20412;-72
2022/11/07 10:01:33;;;;;;;34.58;19.75;;;;;;;14.84;100.00;93485.03;5109975;28;20085;-72
2022/11/07 10:04:00;;;;;;;33.42;18.42;;;;;;;14.69;100.00;93493.25;5109832;28;20047;-72
2022/11/07 10:06:29;;;;;;;35.38;19.80;;;;;;;14.64;100.00;93490.56;5109629;28;20132;-73
2022/11/07 10:09:11;;;;;;;43.17;20.67;;;;;;;14.74;100.00;93492.56;5109777;28;20060;-73
2022/11/07 10:11:44;;;;;;;46.60;21.02;;;;;;;14.65;100.00;93471.44;5109756;28;20142;-73
2022/11/07 10:14:27;;;;;;;39.42;21.25;;;;;;;15.05;100.00;93470.69;5109702;28;20060;-74
2022/11/07 10:17:04;;;;;;;35.90;20.85;;;;;;;15.19;100.00;93478.94;5110012;28;20055;-74
2022/11/07 10:19:47;;;;;;;35.42;18.10;;;;;;;14.97;100.00;93478.81;5109922;28;20096;-73
2022/11/07 10:22:29;;;;;;;36.88;20.75;;;;;;;15.14;100.00;93473.69;5109558;28;20077;-73
2022/11/07 10:25:12;;;;;;;32.30;19.50;;;;;;;15.40;100.00;93463.00;5109741;28;20039;-73
2022/11/07 10:27:39;;;;;;;30.13;18.13;;;;;;;15.15;100.00;93464.94;5109770;28;20096;-74
2022/11/07 10:30:15;;;;;;;29.83;18.67;;;;;;;14.81;100.00;93462.22;5109833;28;20093;-73
2022/11/07 10:32:51;;;;;;;29.98;18.98;;;;;;;15.02;100.00;93458.22;5109835;28;20051;-73
2022/11/07 10:35:25;;;;;;;28.92;17.92;;;;;;;15.14;100.00;93449.63;5109860;28;20342;-73
2022/11/07 10:37:54;;;;;;;27.00;16.98;;;;;;;15.35;100.00;93443.78;5109507;28;20044;-73
2022/11/07 10:40:22;;;;;;;27.73;18.48;;;;;;;15.40;98.81;93450.03;5109702;28;20071;-74
2022/11/07 10:42:50;;;;;;;24.60;16.65;;;;;;;15.47;99.48;93456.66;5109628;28;20052;-73
2022/11/07 10:45:18;;;;;;;23.15;15.13;;;;;;;15.25;97.94;93453.97;5109662;28;20051;-75
2022/11/07 10:47:57;;;;;;;25.83;16.20;;;;;;;15.12;99.50;93447.25;5110059;28;20055;-76
2022/11/07 10:50:24;;;;;;;33.63;20.73;;;;;;;15.16;100.00;93445.78;5109778;28;20122;-76
2022/11/07 10:52:55;;;;;;;32.05;18.85;;;;;;;15.26;98.11;93449.56;5109154;28;20081;-75
2022/11/07 10:55:23;;;;;;;22.02;15.05;;;;;;;15.30;95.16;93450.66;5080934;28;20052;-76
2022/11/07 10:57:54;;;;;;;23.30;15.38;;;;;;;15.26;96.96;93436.63;5109151;28;20097;-75
2022/11/07 11:00:25;;;;;;;28.42;17.13;;;;;;;15.59;100.00;93435.88;5109957;28;20120;-75
2022/11/07 11:02:53;;;;;;;28.95;17.25;;;;;;;15.58;99.08;93430.94;5113297;28;20062;-76
2022/11/07 11:05:26;;;;;;;30.80;18.17;;;;;;;15.58;99.63;93439.50;5113081;28;20096;-76
2022/11/07 11:07:55;;;;;;;23.75;16.70;;;;;;;14.92;98.55;93445.91;5113340;28;20047;-76
2022/11/07 11:10:24;;;;;;;29.10;16.80;;;;;;;14.85;100.00;93436.69;5113269;28;20119;-75
2022/11/07 11:12:51;;;;;;;28.02;17.58;;;;;;;15.04;98.92;93430.31;5113010;28;20108;-75
2022/11/07 11:15:20;;;;;;;25.92;17.00;;;;;;;15.23;100.00;93432.72;5112926;28;20074;-75
2022/11/07 11:17:58;;;;;;;27.63;16.35;;;;;;;14.93;98.08;93400.09;5107052;28;20047;-76
2022/11/07 11:20:31;;;;;;;30.63;16.80;;;;;;;14.91;98.70;93425.44;5106271;28;20048;-76
2022/11/07 11:22:59;;;;;;;24.67;15.70;;;;;;;15.11;99.77;93422.41;5112788;28;20124;-75
2022/11/07 11:25:26;;;;;;;25.70;16.45;;;;;;;15.22;100.00;93402.66;5112463;28;20176;-76
2022/11/07 11:27:58;;;;;;;28.65;16.05;;;;;;;15.61;100.00;93405.34;5112669;28;20036;-75
2022/11/07 11:30:25;;;;;;;25.10;15.60;;;;;;;15.96;96.43;93413.91;5098436;28;20460;-74